METAR AND TAF INFORMATION
METAR FOR NWWW
ADDS - METARS form results

(1924 UTC 16 October 2019)
Data provider http://aviationweather.gov/metar/data/
 
METAR text: NWWW 161900Z AUTO 00000KT 9999 SCT054 14/11 Q1018 NOSIG
Conditions at: NWWW (LA TONTOUTA NLLE, WS) observed 1900 UTC 16 October 2019
Temperature: 14.0°C (57°F)
Dewpoint: 11.0°C (52°F) [RH = 82%]
Pressure (altimeter): 30.06 inches Hg (1018.0 mb)
Winds: calm
Visibility: 6 or more miles (10+ km)
Ceiling: at least 12,000 feet AGL
Clouds: scattered clouds at 5400 feet AGL
Weather: no significant weather observed at this time

METAR text: NWWW 161830Z AUTO 14004KT 9999 FEW054 13/11 Q1018 NOSIG
Conditions at: NWWW (LA TONTOUTA NLLE, WS) observed 1830 UTC 16 October 2019
Temperature: 13.0°C (55°F)
Dewpoint: 11.0°C (52°F) [RH = 88%]
Pressure (altimeter): 30.06 inches Hg (1018.0 mb)
Winds: from the SE (140 degrees) at 5 MPH (4 knots; 2.1 m/s)
Visibility: 6 or more miles (10+ km)
Ceiling: at least 12,000 feet AGL
Clouds: few clouds at 5400 feet AGL
Weather: no significant weather observed at this time

Forecast for: NWWW (LA TONTOUTA NLLE, WS)
Text: TAF NWWW 161700Z 1618/1718 VRB02KT 9999 FEW040
Forecast period: 1800 to 2200 UTC 16 October 2019
Forecast type: FROM: standard forecast or significant change
Winds: variable direction winds at 2 MPH (2 knots; 1.0 m/s)
Visibility: 6 or more miles 10+ km)
Ceiling: at least 12,000 feet AGL
Clouds: few clouds at 4000 feet AGL
Weather: no significant weather forecast for this period
Text: BECMG 1622/1624 15012KT
Forecast period: 2200 UTC 16 October 2019 to 1800 UTC 17 October 2019
Forecast type: BECOMING: Conditions expected to become as follows by 0000 UTC 17 October 2019
Winds: from the SSE (150 degrees) at 14 MPH (12 knots; 6.2 m/s)
Visibility: 6 or more miles 10+ km)
Ceiling: at least 12,000 feet AGL
Clouds: few clouds at 4000 feet AGL
Weather: no significant weather forecast for this period

 AIRPORT MAP

 RUNWAY INFORMATION
Runway 11 Runway length 10663 ft Runway width 148 ft
Runway elevation 30 ft Runway displaced threshold 0 ft Runway heading 121
Runway 29 Runway length 10663 ft Runway width 148 ft
Runway elevation 52 ft Runway displaced threshold 0 ft Runway heading 301

 AIRPORT FREQUENCIES
Type APP Name TONTOUTA A Frequency 119.7 MHZ
Type GND Name GND Frequency 121.7 MHZ
Type INFO Name TONTOUTA I Frequency 128.2 MHZ
Type MISC Name VDF Frequency 118.1 MHZ
Type TWR Name TONTOUTA T Frequency 118.1 MHZ

 AIRPORT NEAR NAVIGATION AIDS
Type NDB Name La Tontouta Frequency 338 KHZ
Type NDB Name La Tontouta Frequency 354 KHZ
Type VOR-DME Name La Tontouta Frequency 112900 KHZ
Type NDB Name La Tontouta Frequency 326 KHZ



Powered by Virtual Airlines Manager [v2.6.2]